Aeroporto :
LOGIN :

Iscrizione | Disclaimer

   EN    FR    IT 

 










Sommario :    VFR   VFR Marginale   IFR   IFR Intensivo   IFR Molto Intensivo
Visibilità : 
Base nubi : 
>= 8 km
>= 3000ft
5 / 8 km
1000 / 3000 ft
1500m / 5 km
500 / 1000 ft
800 / 1500m
200 / 500 ft
< 800m
< 200 ft
Simboli :   Temporali  Nebbia  Neve Forte  Precipitazioni Forti  Vento > 20 kt
SIGMETs :   Varie  Temporali  Ghiacco  Turbolenza  Onda orograficha  Ceneri Vulcaniche






- Altitudine del aeroporto : 1260 ft
- Codice IATA : LDE


LFBT - Tarbes / Ossun

ULTIMO METAR :
  • 202030Z AUTO 26006KT 220V300 9999 FEW019 09/05 Q1030 NOSIG

METARs OBSOLETI :
  • 202000Z AUTO 26009KT CAVOK 09/04 Q1029 NOSIG
  • 201930Z AUTO 26006KT CAVOK 09/03 Q1028 NOSIG
  • 201900Z AUTO 26007KT CAVOK 10/03 Q1028 NOSIG
  • 201830Z AUTO 28007KT CAVOK 10/02 Q1027 NOSIG
  • 201800Z AUTO 30005KT CAVOK 11/02 Q1026 NOSIG

TAF TAF LFBT
Valido dal 20 a 18 ore il 21 a 18 ore UTC


201700Z 2018/2118 28008KT CAVOK
BECMG 2023/2101 BKN022
TEMPO 2106/2112 BKN015
PROB30
TEMPO 2109/2112 4000 -DZ BKN012
BECMG 2109/2111 03005KT



MetMap, La meteo Aeronautica in un colpo d'occhio ! - Copyright ORBIFLY Dicembre 2007 - Disclaimer

ORBIFLY MET'MAP TEAM :

Programmazione e sviluppo : Alexandra Zaïnal
Concezione : Baudouin d'Aumeries
Aiuto per la programmazione : Marc-Olivier Méhu
Supporto tecnico e logistico : Manuel Goepfert
Aiuto per la traduzione : Arnaldo La Scala

Contatto : metmap@orbifly.com




FONTI E CREDITI :

   NOAA